PAMR/MRI METAR and TAF weather

Enter ICAO airport designator
Station Type Date Time Source
PAMR METAR 2022/01/18 07:53 UTC NOAA

PAMR 180753Z 01003KT 10SM FEW002 OVC085 M10/M12 A3007 RMK AO2 SLP184 T11001122


Station Type Date Time Source
PAMR Decoded METAR 2022/01/18 07:53 UTC NOAA

ANCHORAGE MERRILL FIELD, AK, United States (PAMR) 61-13N 149-51W
Jan 18, 2022 - 02:53 AM EST / 2022.01.18 0753 UTC
Wind: from the N (010 degrees) at 3 MPH (3 KT):0
Visibility: 10 mile(s):0
Sky conditions: overcast
Temperature: 14.0 F (-10.0 C)
Dew Point: 10.0 F (-12.2 C)
Relative Humidity: 83%
Pressure (altimeter): 30.07 in. Hg (1018 hPa)
ob: PAMR 180753Z 01003KT 10SM FEW002 OVC085 M10/M12 A3007 RMK AO2 SLP184 T11001122
cycle: 8

Station Type Date Time Source
PAMR TAF UTC NOAA

Error!

Example: see airport list